sensor_id;sensor_type;location;lat;lon;timestamp;pressure;altitude;pressure_sealevel;temperature;humidity
73516;BME280;61763;51.416;5.442;2022-11-14T00:02:11;101477.69;;;2.72;100.00
73516;BME280;61763;51.416;5.442;2022-11-14T00:04:36;101465.34;;;2.63;100.00
73516;BME280;61763;51.416;5.442;2022-11-14T00:07:02;101463.59;;;2.58;100.00
73516;BME280;61763;51.416;5.442;2022-11-14T00:09:28;101461.88;;;2.49;100.00
73516;BME280;61763;51.416;5.442;2022-11-14T00:11:54;101460.91;;;2.61;100.00
73516;BME280;61763;51.416;5.442;2022-11-14T00:14:19;101459.97;;;2.68;100.00
73516;BME280;61763;51.416;5.442;2022-11-14T00:16:45;101456.38;;;2.69;100.00
73516;BME280;61763;51.416;5.442;2022-11-14T00:19:11;101449.31;;;2.68;100.00
73516;BME280;61763;51.416;5.442;2022-11-14T00:21:36;101440.34;;;2.77;100.00
73516;BME280;61763;51.416;5.442;2022-11-14T00:24:02;101449.16;;;2.84;100.00
73516;BME280;61763;51.416;5.442;2022-11-14T00:26:27;101449.09;;;2.90;100.00
73516;BME280;61763;51.416;5.442;2022-11-14T00:28:53;101447.22;;;3.04;100.00
73516;BME280;61763;51.416;5.442;2022-11-14T00:31:19;101440.16;;;2.98;100.00
73516;BME280;61763;51.416;5.442;2022-11-14T00:33:45;101432.97;;;3.05;100.00
73516;BME280;61763;51.416;5.442;2022-11-14T00:36:10;101425.56;;;3.33;100.00
73516;BME280;61763;51.416;5.442;2022-11-14T00:38:35;101417.63;;;3.27;100.00
73516;BME280;61763;51.416;5.442;2022-11-14T00:41:01;101427.31;;;3.36;100.00
73516;BME280;61763;51.416;5.442;2022-11-14T00:43:27;101421.81;;;3.50;100.00
73516;BME280;61763;51.416;5.442;2022-11-14T00:45:52;101421.81;;;3.51;100.00
73516;BME280;61763;51.416;5.442;2022-11-14T00:48:17;101422.81;;;3.40;100.00
73516;BME280;61763;51.416;5.442;2022-11-14T00:50:43;101423.75;;;3.39;100.00
73516;BME280;61763;51.416;5.442;2022-11-14T00:53:09;101422.22;;;3.13;100.00
73516;BME280;61763;51.416;5.442;2022-11-14T00:55:34;101428.63;;;2.95;100.00
73516;BME280;61763;51.416;5.442;2022-11-14T00:57:59;101423.38;;;2.84;100.00
73516;BME280;61763;51.416;5.442;2022-11-14T01:00:25;101423.53;;;2.70;100.00
73516;BME280;61763;51.416;5.442;2022-11-14T01:02:50;101421.81;;;2.60;100.00
73516;BME280;61763;51.416;5.442;2022-11-14T01:05:15;101418.38;;;2.45;100.00
73516;BME280;61763;51.416;5.442;2022-11-14T01:07:41;101425.59;;;2.31;100.00
73516;BME280;61763;51.416;5.442;2022-11-14T01:10:07;101421.25;;;2.16;100.00
73516;BME280;61763;51.416;5.442;2022-11-14T01:12:35;101417.78;;;2.06;100.00
73516;BME280;61763;51.416;5.442;2022-11-14T01:15:01;101415.13;;;2.00;100.00
73516;BME280;61763;51.416;5.442;2022-11-14T01:17:26;101411.63;;;1.93;100.00
73516;BME280;61763;51.416;5.442;2022-11-14T01:19:53;101410.75;;;1.87;100.00
73516;BME280;61763;51.416;5.442;2022-11-14T01:22:18;101403.72;;;1.77;100.00
73516;BME280;61763;51.416;5.442;2022-11-14T01:24:44;101401.13;;;1.66;100.00
73516;BME280;61763;51.416;5.442;2022-11-14T01:27:09;101411.81;;;1.55;100.00
73516;BME280;61763;51.416;5.442;2022-11-14T01:29:35;101400.31;;;1.45;100.00
73516;BME280;61763;51.416;5.442;2022-11-14T01:32:00;101401.22;;;1.36;100.00
73516;BME280;61763;51.416;5.442;2022-11-14T01:34:25;101399.47;;;1.28;100.00
73516;BME280;61763;51.416;5.442;2022-11-14T01:36:51;101396.84;;;1.23;100.00
73516;BME280;61763;51.416;5.442;2022-11-14T01:39:16;101397.75;;;1.17;100.00
73516;BME280;61763;51.416;5.442;2022-11-14T01:41:42;101390.69;;;1.16;100.00
73516;BME280;61763;51.416;5.442;2022-11-14T01:44:12;101402.13;;;1.29;100.00
73516;BME280;61763;51.416;5.442;2022-11-14T01:46:39;101383.47;;;1.46;100.00
73516;BME280;61763;51.416;5.442;2022-11-14T01:49:23;101387.91;;;1.43;100.00
73516;BME280;61763;51.416;5.442;2022-11-14T01:52:05;101375.47;;;1.49;100.00
73516;BME280;61763;51.416;5.442;2022-11-14T01:54:35;101376.34;;;1.51;100.00
73516;BME280;61763;51.416;5.442;2022-11-14T01:57:02;101380.78;;;1.51;100.00
73516;BME280;61763;51.416;5.442;2022-11-14T01:59:40;101380.81;;;1.48;100.00
73516;BME280;61763;51.416;5.442;2022-11-14T02:02:14;101381.72;;;1.40;100.00
73516;BME280;61763;51.416;5.442;2022-11-14T02:04:50;101383.50;;;1.32;100.00
73516;BME280;61763;51.416;5.442;2022-11-14T02:07:18;101380.00;;;1.22;100.00
73516;BME280;61763;51.416;5.442;2022-11-14T02:09:45;101376.50;;;1.11;100.00
73516;BME280;61763;51.416;5.442;2022-11-14T02:12:12;101380.06;;;1.04;100.00
73516;BME280;61763;51.416;5.442;2022-11-14T02:14:39;101375.63;;;0.98;100.00
73516;BME280;61763;51.416;5.442;2022-11-14T02:17:05;101374.78;;;0.90;100.00
73516;BME280;61763;51.416;5.442;2022-11-14T02:19:48;101367.72;;;0.83;100.00
73516;BME280;61763;51.416;5.442;2022-11-14T02:22:14;101363.28;;;0.76;100.00
73516;BME280;61763;51.416;5.442;2022-11-14T02:24:41;101362.41;;;0.75;100.00
73516;BME280;61763;51.416;5.442;2022-11-14T02:27:07;101353.44;;;1.22;100.00
73516;BME280;61763;51.416;5.442;2022-11-14T02:29:33;101342.72;;;1.39;100.00
73516;BME280;61763;51.416;5.442;2022-11-14T02:31:59;101342.50;;;1.77;100.00
73516;BME280;61763;51.416;5.442;2022-11-14T02:34:24;101336.28;;;1.79;100.00
73516;BME280;61763;51.416;5.442;2022-11-14T02:36:50;101335.25;;;2.05;100.00
73516;BME280;61763;51.416;5.442;2022-11-14T02:39:15;101334.34;;;2.03;100.00
73516;BME280;61763;51.416;5.442;2022-11-14T02:41:41;101334.44;;;1.92;100.00
73516;BME280;61763;51.416;5.442;2022-11-14T02:44:07;101339.72;;;2.00;100.00
73516;BME280;61763;51.416;5.442;2022-11-14T02:46:32;101342.50;;;1.81;100.00
73516;BME280;61763;51.416;5.442;2022-11-14T02:48:57;101337.09;;;1.93;100.00
73516;BME280;61763;51.416;5.442;2022-11-14T02:51:23;101339.84;;;1.78;100.00
73516;BME280;61763;51.416;5.442;2022-11-14T02:53:48;101331.97;;;1.63;100.00
73516;BME280;61763;51.416;5.442;2022-11-14T02:56:13;101338.25;;;1.46;100.00
73516;BME280;61763;51.416;5.442;2022-11-14T02:58:39;101328.59;;;1.28;100.00
73516;BME280;61763;51.416;5.442;2022-11-14T03:01:04;101317.06;;;1.28;100.00
73516;BME280;61763;51.416;5.442;2022-11-14T03:03:29;101322.44;;;1.14;100.00
73516;BME280;61763;51.416;5.442;2022-11-14T03:06:01;101319.81;;;1.01;100.00
73516;BME280;61763;51.416;5.442;2022-11-14T03:08:27;101316.31;;;0.90;100.00
73516;BME280;61763;51.416;5.442;2022-11-14T03:10:53;101318.09;;;0.80;100.00
73516;BME280;61763;51.416;5.442;2022-11-14T03:13:18;101315.47;;;0.71;100.00
73516;BME280;61763;51.416;5.442;2022-11-14T03:15:44;101320.81;;;0.65;100.00
73516;BME280;61763;51.416;5.442;2022-11-14T03:18:09;101306.63;;;0.58;100.00
73516;BME280;61763;51.416;5.442;2022-11-14T03:20:35;101301.34;;;0.57;100.00
73516;BME280;61763;51.416;5.442;2022-11-14T03:23:00;101304.88;;;0.66;100.00
73516;BME280;61763;51.416;5.442;2022-11-14T03:25:25;101315.50;;;0.65;100.00
73516;BME280;61763;51.416;5.442;2022-11-14T03:27:51;101311.94;;;0.67;100.00
73516;BME280;61763;51.416;5.442;2022-11-14T03:30:16;101319.91;;;0.64;100.00
73516;BME280;61763;51.416;5.442;2022-11-14T03:32:42;101319.06;;;0.56;100.00
73516;BME280;61763;51.416;5.442;2022-11-14T03:35:08;101319.03;;;0.50;100.00
73516;BME280;61763;51.416;5.442;2022-11-14T03:37:33;101316.38;;;0.64;100.00
73516;BME280;61763;51.416;5.442;2022-11-14T03:39:59;101315.41;;;0.90;100.00
73516;BME280;61763;51.416;5.442;2022-11-14T03:42:24;101305.72;;;0.70;100.00
73516;BME280;61763;51.416;5.442;2022-11-14T03:44:50;101299.53;;;0.69;100.00
73516;BME280;61763;51.416;5.442;2022-11-14T03:47:15;101299.44;;;1.02;100.00
73516;BME280;61763;51.416;5.442;2022-11-14T03:49:41;101292.25;;;1.24;100.00
73516;BME280;61763;51.416;5.442;2022-11-14T03:52:09;101298.41;;;1.34;100.00
73516;BME280;61763;51.416;5.442;2022-11-14T03:54:34;101304.56;;;1.44;100.00
73516;BME280;61763;51.416;5.442;2022-11-14T03:57:00;101292.22;;;1.32;100.00
73516;BME280;61763;51.416;5.442;2022-11-14T03:59:25;101286.94;;;1.24;100.00
73516;BME280;61763;51.416;5.442;2022-11-14T04:01:50;101288.78;;;1.07;100.00
73516;BME280;61763;51.416;5.442;2022-11-14T04:04:16;101292.38;;;0.95;100.00
73516;BME280;61763;51.416;5.442;2022-11-14T04:06:42;101287.03;;;1.04;100.00
73516;BME280;61763;51.416;5.442;2022-11-14T04:09:09;101287.81;;;1.26;100.00
73516;BME280;61763;51.416;5.442;2022-11-14T04:11:34;101286.00;;;1.37;100.00
73516;BME280;61763;51.416;5.442;2022-11-14T04:13:59;101280.66;;;1.40;100.00
73516;BME280;61763;51.416;5.442;2022-11-14T04:16:25;101266.44;;;1.46;100.00
73516;BME280;61763;51.416;5.442;2022-11-14T04:18:50;101256.66;;;1.50;100.00
73516;BME280;61763;51.416;5.442;2022-11-14T04:21:16;101256.63;;;1.51;100.00
73516;BME280;61763;51.416;5.442;2022-11-14T04:23:41;101268.25;;;1.38;100.00
73516;BME280;61763;51.416;5.442;2022-11-14T04:26:06;101263.81;;;1.40;100.00
73516;BME280;61763;51.416;5.442;2022-11-14T04:28:32;101265.63;;;1.32;100.00
73516;BME280;61763;51.416;5.442;2022-11-14T04:30:57;101268.38;;;1.18;100.00
73516;BME280;61763;51.416;5.442;2022-11-14T04:33:24;101262.06;;;1.36;100.00
73516;BME280;61763;51.416;5.442;2022-11-14T04:35:49;101254.09;;;1.36;100.00
73516;BME280;61763;51.416;5.442;2022-11-14T04:38:15;101258.41;;;1.52;100.00
73516;BME280;61763;51.416;5.442;2022-11-14T04:40:47;101255.84;;;1.42;100.00
73516;BME280;61763;51.416;5.442;2022-11-14T04:43:13;101262.00;;;1.44;100.00
73516;BME280;61763;51.416;5.442;2022-11-14T04:45:38;101257.72;;;1.21;100.00
73516;BME280;61763;51.416;5.442;2022-11-14T04:48:03;101256.91;;;1.03;100.00
73516;BME280;61763;51.416;5.442;2022-11-14T04:50:29;101257.84;;;0.84;100.00
73516;BME280;61763;51.416;5.442;2022-11-14T04:52:54;101255.16;;;0.95;100.00
73516;BME280;61763;51.416;5.442;2022-11-14T04:55:19;101262.25;;;0.91;100.00
73516;BME280;61763;51.416;5.442;2022-11-14T04:57:45;101252.59;;;0.72;100.00
73516;BME280;61763;51.416;5.442;2022-11-14T05:00:11;101251.72;;;0.73;100.00
73516;BME280;61763;51.416;5.442;2022-11-14T05:02:36;101245.44;;;0.87;100.00
73516;BME280;61763;51.416;5.442;2022-11-14T05:05:02;101249.03;;;0.80;100.00
73516;BME280;61763;51.416;5.442;2022-11-14T05:07:27;101255.16;;;0.96;100.00
73516;BME280;61763;51.416;5.442;2022-11-14T05:09:52;101243.59;;;1.05;100.00
73516;BME280;61763;51.416;5.442;2022-11-14T05:12:18;101236.50;;;1.09;100.00
73516;BME280;61763;51.416;5.442;2022-11-14T05:14:44;101233.00;;;0.99;100.00
73516;BME280;61763;51.416;5.442;2022-11-14T05:17:09;101231.16;;;1.18;100.00
73516;BME280;61763;51.416;5.442;2022-11-14T05:19:34;101230.19;;;1.25;100.00
73516;BME280;61763;51.416;5.442;2022-11-14T05:22:00;101224.81;;;1.39;100.00
73516;BME280;61763;51.416;5.442;2022-11-14T05:24:25;101218.69;;;1.23;100.00
73516;BME280;61763;51.416;5.442;2022-11-14T05:26:51;101221.34;;;1.23;100.00
73516;BME280;61763;51.416;5.442;2022-11-14T05:29:16;101219.59;;;1.19;100.00
73516;BME280;61763;51.416;5.442;2022-11-14T05:31:42;101212.50;;;1.26;100.00
73516;BME280;61763;51.416;5.442;2022-11-14T05:34:08;101225.72;;;1.33;100.00
73516;BME280;61763;51.416;5.442;2022-11-14T05:36:33;101222.13;;;1.40;100.00
73516;BME280;61763;51.416;5.442;2022-11-14T05:38:58;101213.19;;;1.51;100.00
73516;BME280;61763;51.416;5.442;2022-11-14T05:41:24;101221.22;;;1.45;100.00
73516;BME280;61763;51.416;5.442;2022-11-14T05:43:49;101212.47;;;1.27;100.00
73516;BME280;61763;51.416;5.442;2022-11-14T05:46:15;101210.66;;;1.31;100.00
73516;BME280;61763;51.416;5.442;2022-11-14T05:48:41;101206.38;;;1.10;100.00
73516;BME280;61763;51.416;5.442;2022-11-14T05:51:09;101209.09;;;0.94;100.00
73516;BME280;61763;51.416;5.442;2022-11-14T05:53:35;101204.72;;;0.84;100.00
73516;BME280;61763;51.416;5.442;2022-11-14T05:56:02;101205.69;;;0.66;100.00
73516;BME280;61763;51.416;5.442;2022-11-14T05:58:30;101207.50;;;0.50;100.00
73516;BME280;61763;51.416;5.442;2022-11-14T06:01:07;101205.75;;;0.38;100.00
73516;BME280;61763;51.416;5.442;2022-11-14T06:03:34;101213.75;;;0.29;100.00
73516;BME280;61763;51.416;5.442;2022-11-14T06:06:02;101221.72;;;0.27;100.00
73516;BME280;61763;51.416;5.442;2022-11-14T06:08:29;101209.34;;;0.15;100.00
73516;BME280;61763;51.416;5.442;2022-11-14T06:10:55;101210.25;;;0.24;100.00
73516;BME280;61763;51.416;5.442;2022-11-14T06:13:21;101214.66;;;0.12;100.00
73516;BME280;61763;51.416;5.442;2022-11-14T06:15:49;101215.56;;;0.04;100.00
73516;BME280;61763;51.416;5.442;2022-11-14T06:18:14;101220.88;;;-0.01;100.00
73516;BME280;61763;51.416;5.442;2022-11-14T06:20:41;101206.72;;;-0.03;100.00
73516;BME280;61763;51.416;5.442;2022-11-14T06:23:06;101208.50;;;-0.11;100.00
73516;BME280;61763;51.416;5.442;2022-11-14T06:25:32;101207.59;;;-0.18;100.00
73516;BME280;61763;51.416;5.442;2022-11-14T06:27:57;101211.13;;;-0.24;100.00
73516;BME280;61763;51.416;5.442;2022-11-14T06:30:23;101220.88;;;-0.32;100.00
73516;BME280;61763;51.416;5.442;2022-11-14T06:32:48;101217.31;;;-0.37;100.00
73516;BME280;61763;51.416;5.442;2022-11-14T06:35:14;101213.81;;;-0.44;100.00
73516;BME280;61763;51.416;5.442;2022-11-14T06:37:39;101212.91;;;-0.52;100.00
73516;BME280;61763;51.416;5.442;2022-11-14T06:40:05;101211.13;;;-0.56;100.00
73516;BME280;61763;51.416;5.442;2022-11-14T06:42:30;101220.84;;;-0.63;100.00
73516;BME280;61763;51.416;5.442;2022-11-14T06:44:56;101221.72;;;-0.65;100.00
73516;BME280;61763;51.416;5.442;2022-11-14T06:47:21;101221.72;;;-0.67;100.00
73516;BME280;61763;51.416;5.442;2022-11-14T06:49:46;101232.31;;;-0.68;100.00
73516;BME280;61763;51.416;5.442;2022-11-14T06:52:13;101226.13;;;-0.71;100.00
73516;BME280;61763;51.416;5.442;2022-11-14T06:54:38;101224.34;;;-0.73;100.00
73516;BME280;61763;51.416;5.442;2022-11-14T06:57:04;101229.66;;;-0.73;100.00
73516;BME280;61763;51.416;5.442;2022-11-14T06:59:30;101222.59;;;-0.73;100.00
73516;BME280;61763;51.416;5.442;2022-11-14T07:01:55;101225.22;;;-0.76;100.00
73516;BME280;61763;51.416;5.442;2022-11-14T07:04:20;101232.31;;;-0.78;100.00
73516;BME280;61763;51.416;5.442;2022-11-14T07:06:46;101228.75;;;-0.80;100.00
73516;BME280;61763;51.416;5.442;2022-11-14T07:09:11;101231.41;;;-0.77;100.00
73516;BME280;61763;51.416;5.442;2022-11-14T07:11:36;101228.78;;;-0.74;100.00
73516;BME280;61763;51.416;5.442;2022-11-14T07:14:02;101235.84;;;-0.74;100.00
73516;BME280;61763;51.416;5.442;2022-11-14T07:16:30;101240.25;;;-0.78;100.00
73516;BME280;61763;51.416;5.442;2022-11-14T07:19:00;101237.59;;;-0.78;100.00
73516;BME280;61763;51.416;5.442;2022-11-14T07:21:28;101242.91;;;-0.78;100.00
73516;BME280;61763;51.416;5.442;2022-11-14T07:23:54;101237.59;;;-0.78;100.00
73516;BME280;61763;51.416;5.442;2022-11-14T07:26:20;101234.09;;;-0.71;100.00
73516;BME280;61763;51.416;5.442;2022-11-14T07:28:46;101238.50;;;-0.68;100.00
73516;BME280;61763;51.416;5.442;2022-11-14T07:31:13;101231.44;;;-0.66;100.00
73516;BME280;61763;51.416;5.442;2022-11-14T07:33:39;101235.88;;;-0.60;100.00
73516;BME280;61763;51.416;5.442;2022-11-14T07:36:06;101233.22;;;-0.57;100.00
73516;BME280;61763;51.416;5.442;2022-11-14T07:38:32;101226.16;;;-0.55;100.00
73516;BME280;61763;51.416;5.442;2022-11-14T07:41:00;101221.72;;;-0.53;100.00
73516;BME280;61763;51.416;5.442;2022-11-14T07:43:26;101219.09;;;-0.44;100.00
73516;BME280;61763;51.416;5.442;2022-11-14T07:45:52;101226.19;;;-0.38;100.00
73516;BME280;61763;51.416;5.442;2022-11-14T07:48:17;101225.31;;;-0.28;100.00
73516;BME280;61763;51.416;5.442;2022-11-14T07:50:43;101222.63;;;-0.03;100.00
73516;BME280;61763;51.416;5.442;2022-11-14T07:53:09;101217.34;;;0.08;100.00
73516;BME280;61763;51.416;5.442;2022-11-14T07:55:35;101222.63;;;0.19;100.00
73516;BME280;61763;51.416;5.442;2022-11-14T07:58:00;101212.84;;;0.34;100.00
73516;BME280;61763;51.416;5.442;2022-11-14T08:00:26;101221.69;;;0.47;100.00
73516;BME280;61763;51.416;5.442;2022-11-14T08:02:51;101216.34;;;0.57;100.00
73516;BME280;61763;51.416;5.442;2022-11-14T08:05:17;101214.53;;;0.60;100.00
73516;BME280;61763;51.416;5.442;2022-11-14T08:07:43;101197.69;;;0.67;100.00
73516;BME280;61763;51.416;5.442;2022-11-14T08:10:09;101191.50;;;0.70;100.00
73516;BME280;61763;51.416;5.442;2022-11-14T08:12:36;101182.63;;;0.74;100.00
73516;BME280;61763;51.416;5.442;2022-11-14T08:15:07;101187.03;;;0.80;100.00
73516;BME280;61763;51.416;5.442;2022-11-14T08:17:33;101187.66;;;1.23;100.00
73516;BME280;61763;51.416;5.442;2022-11-14T08:19:58;101176.66;;;1.74;100.00
73516;BME280;61763;51.416;5.442;2022-11-14T08:22:24;101178.38;;;1.82;100.00
73516;BME280;61763;51.416;5.442;2022-11-14T08:24:49;101182.66;;;1.98;100.00
73516;BME280;61763;51.416;5.442;2022-11-14T08:27:15;101186.03;;;2.17;100.00
73516;BME280;61763;51.416;5.442;2022-11-14T08:29:40;101184.06;;;2.36;100.00
73516;BME280;61763;51.416;5.442;2022-11-14T08:32:05;101176.94;;;2.37;100.00
73516;BME280;61763;51.416;5.442;2022-11-14T08:34:31;101169.69;;;2.50;100.00
73516;BME280;61763;51.416;5.442;2022-11-14T08:36:57;101173.25;;;2.47;100.00
73516;BME280;61763;51.416;5.442;2022-11-14T08:39:22;101163.50;;;2.49;100.00
73516;BME280;61763;51.416;5.442;2022-11-14T08:41:48;101157.81;;;2.74;100.00
73516;BME280;61763;51.416;5.442;2022-11-14T08:44:13;101162.94;;;2.92;100.00
73516;BME280;61763;51.416;5.442;2022-11-14T08:46:39;101171.91;;;2.85;100.00
73516;BME280;61763;51.416;5.442;2022-11-14T08:49:04;101165.78;;;2.78;100.00
73516;BME280;61763;51.416;5.442;2022-11-14T08:51:30;101163.78;;;2.94;100.00
73516;BME280;61763;51.416;5.442;2022-11-14T08:53:55;101171.56;;;3.11;100.00
73516;BME280;61763;51.416;5.442;2022-11-14T08:56:20;101166.00;;;3.28;100.00
73516;BME280;61763;51.416;5.442;2022-11-14T08:58:46;101166.88;;;3.27;100.00
73516;BME280;61763;51.416;5.442;2022-11-14T09:01:13;101165.09;;;3.26;100.00
73516;BME280;61763;51.416;5.442;2022-11-14T09:03:38;101163.16;;;3.39;100.00
73516;BME280;61763;51.416;5.442;2022-11-14T09:06:03;101160.16;;;3.58;100.00
73516;BME280;61763;51.416;5.442;2022-11-14T09:08:29;101160.09;;;3.64;100.00
73516;BME280;61763;51.416;5.442;2022-11-14T09:10:55;101151.09;;;3.70;100.00
73516;BME280;61763;51.416;5.442;2022-11-14T09:13:23;101146.41;;;3.82;100.00
73516;BME280;61763;51.416;5.442;2022-11-14T09:15:49;101145.56;;;3.80;100.00
73516;BME280;61763;51.416;5.442;2022-11-14T09:18:14;101145.09;;;4.07;100.00
73516;BME280;61763;51.416;5.442;2022-11-14T09:20:40;101142.53;;;4.02;100.00
73516;BME280;61763;51.416;5.442;2022-11-14T09:23:05;101137.34;;;4.39;100.00
73516;BME280;61763;51.416;5.442;2022-11-14T09:25:30;101130.41;;;4.29;100.00
73516;BME280;61763;51.416;5.442;2022-11-14T09:27:56;101128.69;;;4.25;100.00
73516;BME280;61763;51.416;5.442;2022-11-14T09:30:22;101124.66;;;4.51;100.00
73516;BME280;61763;51.416;5.442;2022-11-14T09:32:49;101117.47;;;4.53;100.00
73516;BME280;61763;51.416;5.442;2022-11-14T09:35:15;101125.41;;;4.56;100.00
73516;BME280;61763;51.416;5.442;2022-11-14T09:37:40;101128.19;;;4.51;100.00
73516;BME280;61763;51.416;5.442;2022-11-14T09:40:10;101113.81;;;4.57;100.00
73516;BME280;61763;51.416;5.442;2022-11-14T09:45:37;101126.06;;;5.08;100.00
73516;BME280;61763;51.416;5.442;2022-11-14T09:48:11;101123.84;;;5.25;100.00
73516;BME280;61763;51.416;5.442;2022-11-14T09:50:45;101122.84;;;5.31;100.00
73516;BME280;61763;51.416;5.442;2022-11-14T09:55:52;101123.59;;;5.38;100.00
73516;BME280;61763;51.416;5.442;2022-11-14T09:58:19;101122.16;;;5.59;100.00
73516;BME280;61763;51.416;5.442;2022-11-14T10:00:56;101121.38;;;5.55;100.00
73516;BME280;61763;51.416;5.442;2022-11-14T10:09:02;101118.47;;;5.99;100.00
73516;BME280;61763;51.416;5.442;2022-11-14T10:22:39;101105.03;;;6.34;100.00
73516;BME280;61763;51.416;5.442;2022-11-14T10:25:24;101112.63;;;6.49;100.00
73516;BME280;61763;51.416;5.442;2022-11-14T10:30:39;101100.59;;;6.62;100.00
73516;BME280;61763;51.416;5.442;2022-11-14T10:38:47;101095.00;;;7.00;100.00
73516;BME280;61763;51.416;5.442;2022-11-14T10:41:16;101093.63;;;7.15;100.00
73516;BME280;61763;51.416;5.442;2022-11-14T10:43:46;101096.09;;;7.21;100.00
73516;BME280;61763;51.416;5.442;2022-11-14T10:46:14;101099.59;;;7.25;100.00
73516;BME280;61763;51.416;5.442;2022-11-14T10:48:43;101094.69;;;7.37;99.74
73516;BME280;61763;51.416;5.442;2022-11-14T10:54:02;101086.81;;;7.58;97.68
73516;BME280;61763;51.416;5.442;2022-11-14T10:56:31;101087.56;;;7.63;97.16
73516;BME280;61763;51.416;5.442;2022-11-14T10:58:56;101083.91;;;7.66;97.54
73516;BME280;61763;51.416;5.442;2022-11-14T11:01:34;101083.91;;;7.66;97.00
73516;BME280;61763;51.416;5.442;2022-11-14T11:06:52;101071.75;;;7.81;95.08
73516;BME280;61763;51.416;5.442;2022-11-14T11:09:21;101069.63;;;7.91;95.26
73516;BME280;61763;51.416;5.442;2022-11-14T11:12:06;101056.22;;;7.89;94.48
73516;BME280;61763;51.416;5.442;2022-11-14T11:14:33;101049.63;;;7.98;93.86
73516;BME280;61763;51.416;5.442;2022-11-14T11:17:15;101042.81;;;7.87;94.48
73516;BME280;61763;51.416;5.442;2022-11-14T11:19:42;101048.00;;;7.94;94.39
73516;BME280;61763;51.416;5.442;2022-11-14T11:24:52;101034.97;;;8.06;93.98
73516;BME280;61763;51.416;5.442;2022-11-14T11:27:20;101031.00;;;8.17;93.76
73516;BME280;61763;51.416;5.442;2022-11-14T11:32:34;101023.84;;;8.17;94.00
73516;BME280;61763;51.416;5.442;2022-11-14T11:35:03;101019.88;;;8.28;94.43
73516;BME280;61763;51.416;5.442;2022-11-14T11:37:55;101019.00;;;8.51;92.50
73516;BME280;61763;51.416;5.442;2022-11-14T11:40:24;101019.25;;;8.45;92.70
73516;BME280;61763;51.416;5.442;2022-11-14T11:43:08;101025.22;;;8.53;93.31
73516;BME280;61763;51.416;5.442;2022-11-14T11:45:35;101035.78;;;8.57;90.86
73516;BME280;61763;51.416;5.442;2022-11-14T11:48:18;101029.28;;;8.63;90.46
73516;BME280;61763;51.416;5.442;2022-11-14T11:50:44;101026.78;;;8.58;90.03
73516;BME280;61763;51.416;5.442;2022-11-14T11:53:23;101028.47;;;8.61;89.24
73516;BME280;61763;51.416;5.442;2022-11-14T11:55:52;101022.34;;;8.80;88.85
73516;BME280;61763;51.416;5.442;2022-11-14T12:01:04;101019.16;;;9.14;88.82
73516;BME280;61763;51.416;5.442;2022-11-14T12:03:30;101033.97;;;9.24;87.73
73516;BME280;61763;51.416;5.442;2022-11-14T12:06:21;101036.94;;;9.18;88.27
73516;BME280;61763;51.416;5.442;2022-11-14T12:11:42;101042.53;;;9.14;86.52
73516;BME280;61763;51.416;5.442;2022-11-14T12:28:48;101021.09;;;9.33;83.35
73516;BME280;61763;51.416;5.442;2022-11-14T12:31:23;101025.53;;;9.34;84.52
73516;BME280;61763;51.416;5.442;2022-11-14T12:34:00;101031.72;;;9.36;83.40
73516;BME280;61763;51.416;5.442;2022-11-14T12:36:30;101031.94;;;9.31;82.72
73516;BME280;61763;51.416;5.442;2022-11-14T12:38:56;101033.75;;;9.31;82.41
73516;BME280;61763;51.416;5.442;2022-11-14T12:41:26;101042.91;;;9.26;82.47
73516;BME280;61763;51.416;5.442;2022-11-14T12:50:27;101029.84;;;9.16;81.37
73516;BME280;61763;51.416;5.442;2022-11-14T12:52:55;101025.38;;;9.16;81.77
73516;BME280;61763;51.416;5.442;2022-11-14T12:58:07;101001.56;;;9.05;82.67
73516;BME280;61763;51.416;5.442;2022-11-14T13:12:24;100963.84;;;8.39;84.06
73516;BME280;61763;51.416;5.442;2022-11-14T13:21:15;100952.16;;;8.40;82.25
73516;BME280;61763;51.416;5.442;2022-11-14T13:23:59;100936.94;;;8.39;83.26
73516;BME280;61763;51.416;5.442;2022-11-14T13:28:51;100940.66;;;8.36;82.93
73516;BME280;61763;51.416;5.442;2022-11-14T13:31:19;100932.72;;;8.33;83.33
73516;BME280;61763;51.416;5.442;2022-11-14T13:34:01;100930.06;;;8.32;84.19
73516;BME280;61763;51.416;5.442;2022-11-14T13:36:57;100929.56;;;8.22;84.58
73516;BME280;61763;51.416;5.442;2022-11-14T13:39:53;100917.22;;;8.16;85.70
73516;BME280;61763;51.416;5.442;2022-11-14T13:50:31;100899.78;;;8.04;86.84
73516;BME280;61763;51.416;5.442;2022-11-14T13:52:58;100898.72;;;8.09;86.50
73516;BME280;61763;51.416;5.442;2022-11-14T13:56:00;100907.06;;;8.01;87.37
73516;BME280;61763;51.416;5.442;2022-11-14T14:10:41;100919.50;;;8.03;87.37
73516;BME280;61763;51.416;5.442;2022-11-14T14:13:35;100918.34;;;7.87;88.22
73516;BME280;61763;51.416;5.442;2022-11-14T14:16:12;100913.66;;;7.68;89.68
73516;BME280;61763;51.416;5.442;2022-11-14T14:32:34;100914.56;;;7.69;89.91
73516;BME280;61763;51.416;5.442;2022-11-14T14:35:28;100898.94;;;7.79;90.62
73516;BME280;61763;51.416;5.442;2022-11-14T14:37:55;100864.78;;;8.06;88.50
73516;BME280;61763;51.416;5.442;2022-11-14T14:40:30;100879.53;;;8.18;87.95
73516;BME280;61763;51.416;5.442;2022-11-14T14:42:59;100886.56;;;7.98;88.85
73516;BME280;61763;51.416;5.442;2022-11-14T14:45:26;100890.81;;;7.82;90.39
73516;BME280;61763;51.416;5.442;2022-11-14T14:48:02;100903.22;;;7.61;91.71
73516;BME280;61763;51.416;5.442;2022-11-14T14:50:40;100902.88;;;7.45;93.41
73516;BME280;61763;51.416;5.442;2022-11-14T14:53:07;100906.69;;;7.39;93.82
73516;BME280;61763;51.416;5.442;2022-11-14T14:58:39;100922.13;;;7.07;95.97
73516;BME280;61763;51.416;5.442;2022-11-14T15:01:13;100929.75;;;6.93;97.44
73516;BME280;61763;51.416;5.442;2022-11-14T15:03:51;100922.44;;;6.98;97.49